KCCB

Cable Airport

Upland, California, USA
METAR KCCB 232015Z AUTO 25009KT 10SM CLR 25/10 A2988 RMK AO2
Observed Flight Rules
Oct-23 @ 20:15 UTC (16 minutes ago) Visual Flight Rules
Wind Visibility Clouds
250° at 9 knots 10 miles
  • Clear skies
Temperatures Readings
Current 25°C / 77°F
Dewpoint 10°C / 50°F
Humidity 39%
Altimeter 29.88" Hg
Pressure 1012 hPa
Elevation 440
METAR KCCB 232015Z AUTO 25009KT 10SM CLR 25/10 A2988 RMK AO2
Observed Flight Rules
Oct-23 @ 20:15 UTC
(16 minutes ago)
VFR
Wind Visibility
250° at 9 knots 10 miles
Clouds
  • Clear skies
Temperature Dewpoint
25°C / 77°F 10°C / 50°F
Humidity Altimeter Pressure
39% 29.88" Hg 1012 hPa